Time;durP1;ratioP1;P1;durP2;ratioP2;P2;SDS_P1;SDS_P2;PMS_P1;PMS_P2;Temp;Humidity;BMP_temperature;BMP_pressure;BME280_temperature;BME280_humidity;BME280_pressure;Samples;Min_cycle;Max_cycle;Signal;HPM_P1;HPM_P2
2022/09/08 00:01:26;;;;;;;47.85;14.65;;;;;;;17.17;100.00;100528.72;5033599;28;20112;-84
2022/09/08 00:03:51;;;;;;;38.35;12.70;;;;;;;17.33;100.00;100550.88;5014164;28;20064;-84
2022/09/08 00:06:20;;;;;;;45.53;12.95;;;;;;;17.32;100.00;100553.81;5012238;28;20053;-84
2022/09/08 00:08:55;;;;;;;31.55;11.45;;;;;;;17.31;100.00;100568.66;5006845;28;20120;-84
2022/09/08 00:11:27;;;;;;;41.80;13.02;;;;;;;17.23;100.00;100578.69;4998395;28;20458;-84
2022/09/08 00:13:57;;;;;;;37.40;10.80;;;;;;;17.31;100.00;100604.63;5035987;28;20091;-85
2022/09/08 00:16:28;;;;;;;81.45;16.27;;;;;;;17.39;100.00;100583.34;5028573;28;20409;-83
2022/09/08 00:18:58;;;;;;;76.20;15.15;;;;;;;17.40;100.00;100574.03;5019820;28;20532;-83
2022/09/08 00:21:26;;;;;;;52.53;14.98;;;;;;;17.45;100.00;100566.06;5017216;28;20038;-83
2022/09/08 00:23:58;;;;;;;57.58;15.63;;;;;;;17.48;100.00;100566.75;5036929;28;20105;-83
2022/09/08 00:26:29;;;;;;;59.10;14.32;;;;;;;17.31;100.00;100547.38;5019348;28;20437;-83
2022/09/08 00:28:54;;;;;;;73.93;17.45;;;;;;;17.27;100.00;100543.25;5011211;28;20045;-82
2022/09/08 00:31:20;;;;;;;87.38;18.17;;;;;;;17.17;100.00;100529.59;5002734;28;20037;-81
2022/09/08 00:33:52;;;;;;;65.03;16.67;;;;;;;17.15;100.00;100522.47;5044643;28;20029;-82
2022/09/08 00:36:23;;;;;;;76.32;18.65;;;;;;;17.05;100.00;100512.47;5034495;28;20025;-82
2022/09/08 00:38:53;;;;;;;73.43;16.98;;;;;;;16.97;100.00;100522.63;4997217;28;20030;-82
2022/09/08 00:41:22;;;;;;;61.17;13.20;;;;;;;16.82;100.00;100541.78;5031073;28;20095;-82
2022/09/08 00:43:52;;;;;;;41.38;11.82;;;;;;;16.69;100.00;100547.78;5030646;28;20048;-82
2022/09/08 00:46:41;;;;;;;61.72;12.27;;;;;;;16.61;100.00;100512.72;5018046;28;20041;-80
2022/09/08 00:49:20;;;;;;;32.15;9.23;;;;;;;16.50;100.00;100521.34;5019726;28;20037;-80
2022/09/08 00:51:49;;;;;;;45.80;9.52;;;;;;;16.48;100.00;100517.88;5025555;28;20099;-80
2022/09/08 00:54:17;;;;;;;50.03;10.48;;;;;;;16.49;100.00;100511.31;5029592;28;20032;-81
2022/09/08 00:56:47;;;;;;;34.65;7.97;;;;;;;16.36;100.00;100495.19;5032303;28;20389;-80
2022/09/08 00:59:20;;;;;;;37.37;8.23;;;;;;;16.36;100.00;100492.44;5034887;28;20026;-79
2022/09/08 01:01:54;;;;;;;36.00;8.13;;;;;;;16.32;100.00;100488.28;5018753;28;20021;-80
2022/09/08 01:04:21;;;;;;;36.30;8.38;;;;;;;16.19;100.00;100474.94;5026466;28;20042;-82
2022/09/08 01:12:44;;;;;;;42.67;8.30;;;;;;;16.25;100.00;100474.28;5030372;28;20029;-83
2022/09/08 01:15:21;;;;;;;25.85;7.72;;;;;;;16.21;100.00;100470.13;5049686;28;20030;-84
2022/09/08 01:17:49;;;;;;;39.75;8.60;;;;;;;16.25;100.00;100462.34;5028848;28;20536;-84
2022/09/08 01:20:28;;;;;;;31.30;9.63;;;;;;;16.28;100.00;100471.19;5022554;28;20473;-83
2022/09/08 01:23:28;;;;;;;54.35;9.70;;;;;;;16.33;100.00;100467.91;5012786;28;20026;-83
2022/09/08 01:26:17;;;;;;;25.25;8.38;;;;;;;16.29;100.00;100469.28;5017485;28;20046;-82
2022/09/08 01:28:55;;;;;;;42.78;9.07;;;;;;;16.24;100.00;100478.06;5023808;28;20040;-82
2022/09/08 01:31:31;;;;;;;33.60;8.93;;;;;;;16.25;100.00;100477.06;5034551;28;20096;-82
2022/09/08 01:33:59;;;;;;;48.70;9.63;;;;;;;16.28;100.00;100468.44;5035712;28;20041;-82
2022/09/08 01:36:28;;;;;;;27.15;8.80;;;;;;;16.24;100.00;100455.13;5021230;28;20037;-84
2022/09/08 01:38:55;;;;;;;32.05;8.10;;;;;;;16.17;100.00;100460.44;4995492;28;20030;-84
2022/09/08 01:41:22;;;;;;;29.77;7.47;;;;;;;16.27;100.00;100460.31;5005678;28;20046;-84
2022/09/08 01:43:48;;;;;;;34.85;8.38;;;;;;;16.23;100.00;100458.91;5007216;28;20084;-84
2022/09/08 01:46:16;;;;;;;30.25;8.10;;;;;;;16.26;100.00;100464.94;4999780;28;20434;-84
2022/09/08 01:48:42;;;;;;;31.17;8.02;;;;;;;16.19;100.00;100450.09;5028949;28;20060;-84
2022/09/08 01:51:08;;;;;;;32.53;8.20;;;;;;;16.22;100.00;100451.66;5017119;28;20073;-84
2022/09/08 01:53:44;;;;;;;36.63;8.43;;;;;;;16.11;100.00;100463.88;5013434;28;20048;-84
2022/09/08 01:56:12;;;;;;;44.70;9.82;;;;;;;16.36;100.00;100462.03;5027463;28;20029;-84
2022/09/08 01:58:41;;;;;;;25.50;7.90;;;;;;;16.22;100.00;100455.28;5012763;28;20543;-84
2022/09/08 02:01:09;;;;;;;37.40;9.20;;;;;;;16.28;100.00;100437.16;5028712;28;20041;-85
2022/09/08 02:03:37;;;;;;;43.60;8.90;;;;;;;16.31;100.00;100445.97;5016915;28;20069;-85
2022/09/08 02:06:06;;;;;;;38.55;9.35;;;;;;;16.39;100.00;100442.34;5023479;28;21730;-85
2022/09/08 02:08:34;;;;;;;38.72;8.38;;;;;;;16.19;100.00;100435.44;5021476;28;20135;-85
2022/09/08 02:11:00;;;;;;;33.05;8.10;;;;;;;16.25;100.00;100434.72;5018974;28;20084;-84
2022/09/08 02:13:27;;;;;;;41.40;9.65;;;;;;;16.42;100.00;100427.34;5024979;28;20034;-85
2022/09/08 02:16:06;;;;;;;22.83;6.68;;;;;;;16.17;100.00;100425.41;5005783;28;20037;-85
2022/09/08 02:18:32;;;;;;;39.42;8.45;;;;;;;16.17;100.00;100430.06;5034071;28;20029;-85
2022/09/08 02:21:12;;;;;;;45.60;8.80;;;;;;;16.29;100.00;100411.25;5036698;28;20058;-85
2022/09/08 02:23:41;;;;;;;37.83;9.70;;;;;;;16.18;100.00;100404.16;5016239;28;20459;-85
2022/09/08 02:26:16;;;;;;;43.67;9.77;;;;;;;16.11;100.00;100403.97;5028688;28;20053;-84
2022/09/08 02:28:44;;;;;;;39.17;9.45;;;;;;;16.22;100.00;100405.56;5020998;28;20048;-84
2022/09/08 02:31:12;;;;;;;31.88;9.07;;;;;;;16.16;100.00;100400.69;5023745;28;20029;-83
2022/09/08 02:33:40;;;;;;;38.03;9.32;;;;;;;16.04;100.00;100411.22;5010031;28;20026;-84
2022/09/08 02:36:06;;;;;;;43.80;9.15;;;;;;;16.12;100.00;100415.91;5012840;28;20044;-85
2022/09/08 02:38:37;;;;;;;48.25;9.20;;;;;;;16.19;100.00;100422.47;5020755;28;20037;-85
2022/09/08 02:41:09;;;;;;;34.30;9.55;;;;;;;16.18;100.00;100417.97;5025676;28;20111;-84
2022/09/08 02:43:41;;;;;;;;;;;;;;;16.22;100.00;100424.91;5008018;28;20433;-83
2022/09/08 02:46:16;;;;;;;40.97;10.55;;;;;;;16.33;100.00;100429.22;5012546;28;19917;-83
2022/09/08 02:48:44;;;;;;;39.03;10.43;;;;;;;16.16;100.00;100434.69;5024498;28;20494;-84
2022/09/08 02:51:12;;;;;;;40.83;10.93;;;;;;;16.09;100.00;100438.34;5027743;28;20065;-84
2022/09/08 02:53:39;;;;;;;34.85;9.85;;;;;;;16.08;100.00;100433.81;5008225;28;20037;-84
2022/09/08 02:56:06;;;;;;;33.83;9.18;;;;;;;16.10;100.00;100438.16;4981168;28;20109;-84
2022/09/08 02:58:32;;;;;;;41.20;10.50;;;;;;;16.08;100.00;100429.16;5037646;28;20036;-84
2022/09/08 03:00:58;;;;;;;36.30;9.75;;;;;;;16.14;100.00;100439.53;5022898;28;20030;-84
2022/09/08 03:03:24;;;;;;;46.20;11.05;;;;;;;16.26;100.00;100409.69;5025796;28;20038;-83
2022/09/08 03:05:53;;;;;;;38.00;10.48;;;;;;;16.34;100.00;100417.16;5035629;28;20033;-83
2022/09/08 03:08:22;;;;;;;44.78;10.60;;;;;;;16.21;100.00;100430.59;5029377;28;20030;-83
2022/09/08 03:10:54;;;;;;;44.58;10.70;;;;;;;16.15;100.00;100421.94;5006504;28;20034;-83
2022/09/08 03:13:20;;;;;;;36.03;11.68;;;;;;;16.19;100.00;100422.47;5042356;28;20030;-83
2022/09/08 03:15:46;;;;;;;40.83;11.90;;;;;;;16.42;100.00;100424.59;5039951;28;20030;-83
2022/09/08 03:18:13;;;;;;;34.28;11.55;;;;;;;16.25;100.00;100413.50;5024294;28;20032;-83
2022/09/08 03:20:43;;;;;;;37.17;9.95;;;;;;;16.12;100.00;100415.91;5015925;28;20025;-84
2022/09/08 03:23:16;;;;;;;41.67;10.30;;;;;;;16.19;100.00;100433.50;5033196;28;20030;-83
2022/09/08 03:25:48;;;;;;;36.42;10.77;;;;;;;16.16;100.00;100431.94;5031636;28;20273;-84
2022/09/08 03:28:24;;;;;;;29.60;9.77;;;;;;;16.14;100.00;100425.72;5037875;28;20489;-84
2022/09/08 03:30:50;;;;;;;43.10;10.32;;;;;;;16.21;100.00;100423.16;5037007;28;20037;-83
2022/09/08 03:33:16;;;;;;;29.73;8.85;;;;;;;16.08;100.00;100415.34;5021049;28;20030;-84
2022/09/08 03:35:42;;;;;;;88.85;11.65;;;;;;;16.02;100.00;100424.34;5038077;28;20052;-84
2022/09/08 03:38:08;;;;;;;37.15;10.10;;;;;;;16.05;100.00;100425.88;5034442;28;20030;-84
2022/09/08 03:40:34;;;;;;;47.58;10.13;;;;;;;15.99;100.00;100419.13;5024804;28;20045;-84
2022/09/08 03:43:06;;;;;;;37.50;9.48;;;;;;;16.12;100.00;100440.75;5016991;28;20025;-85
2022/09/08 03:45:32;;;;;;;40.60;9.10;;;;;;;16.02;100.00;100427.09;5020401;28;20025;-84
2022/09/08 03:47:58;;;;;;;50.20;10.30;;;;;;;16.04;100.00;100432.44;5022501;28;20477;-84
2022/09/08 03:50:25;;;;;;;38.95;10.43;;;;;;;16.20;100.00;100431.59;5032684;28;20034;-83
2022/09/08 03:52:59;;;;;;;42.22;10.02;;;;;;;16.14;100.00;100420.22;5033375;28;20030;-83
2022/09/08 03:55:25;;;;;;;46.78;10.65;;;;;;;16.28;100.00;100413.19;4976514;28;20041;-83
2022/09/08 03:57:51;;;;;;;34.80;10.68;;;;;;;16.16;100.00;100390.50;5008367;28;20398;-83
2022/09/08 04:00:26;;;;;;;43.08;10.88;;;;;;;16.33;100.00;100396.06;5028371;28;20041;-83
2022/09/08 04:02:52;;;;;;;40.90;11.55;;;;;;;16.22;100.00;100388.97;5028415;28;20037;-84
2022/09/08 04:05:26;;;;;;;42.13;9.85;;;;;;;16.22;100.00;100408.31;5020586;28;20521;-84
2022/09/08 04:07:52;;;;;;;35.38;8.45;;;;;;;16.07;100.00;100415.50;5035140;28;20040;-84
2022/09/08 04:10:23;;;;;;;40.10;8.10;;;;;;;16.19;100.00;100424.38;5030899;28;20556;-83
2022/09/08 04:12:51;;;;;;;56.90;8.27;;;;;;;15.94;100.00;100418.78;5010025;28;20047;-84
2022/09/08 04:15:21;;;;;;;35.85;9.27;;;;;;;15.96;100.00;100433.28;5033005;28;20029;-84
2022/09/08 04:17:50;;;;;;;49.45;9.25;;;;;;;15.96;100.00;100442.41;5032695;28;20029;-84
2022/09/08 04:20:18;;;;;;;42.15;9.25;;;;;;;16.02;100.00;100435.38;5027153;28;20030;-84
2022/09/08 04:22:51;;;;;;;38.90;9.02;;;;;;;15.98;100.00;100445.88;5024111;28;20065;-83
2022/09/08 04:25:17;;;;;;;62.70;10.20;;;;;;;15.88;100.00;100445.16;5014390;28;20058;-84
2022/09/08 04:27:45;;;;;;;45.13;9.15;;;;;;;15.99;100.00;100458.66;5016090;28;20041;-83
2022/09/08 04:30:11;;;;;;;37.35;9.85;;;;;;;16.07;100.00;100465.22;5027936;28;20095;-82
2022/09/08 04:32:38;;;;;;;37.50;8.48;;;;;;;16.00;100.00;100459.50;5014954;28;20078;-83
2022/09/08 04:35:12;;;;;;;48.13;11.20;;;;;;;16.01;100.00;100457.63;5031713;28;20097;-84
2022/09/08 04:37:38;;;;;;;52.17;10.05;;;;;;;15.87;100.00;100448.06;5017247;28;20034;-83
2022/09/08 04:40:06;;;;;;;51.35;10.77;;;;;;;15.87;100.00;100465.53;4999396;28;20053;-81
2022/09/08 04:42:39;;;;;;;48.22;11.30;;;;;;;15.85;100.00;100464.81;5009407;28;20124;-82
2022/09/08 04:45:06;;;;;;;51.05;10.65;;;;;;;15.92;100.00;100467.75;5008046;28;20197;-81
2022/09/08 04:47:36;;;;;;;51.88;11.63;;;;;;;15.97;100.00;100460.72;5001613;28;20037;-82
2022/09/08 04:50:02;;;;;;;48.08;11.32;;;;;;;15.99;100.00;100472.47;4991137;28;20037;-82
2022/09/08 04:52:29;;;;;;;44.65;12.10;;;;;;;15.95;100.00;100472.97;4984090;28;20079;-82
2022/09/08 04:55:03;;;;;;;48.33;11.23;;;;;;;15.89;100.00;100468.09;5025820;28;20346;-83
2022/09/08 04:57:34;;;;;;;58.13;11.82;;;;;;;15.93;100.00;100470.34;5013650;28;20025;-82
2022/09/08 05:00:07;;;;;;;40.08;10.88;;;;;;;15.93;100.00;100480.53;5003021;28;20038;-81
2022/09/08 05:02:37;;;;;;;48.13;11.98;;;;;;;15.92;100.00;100474.16;5009202;28;20093;-81
2022/09/08 05:05:07;;;;;;;52.55;11.07;;;;;;;15.90;100.00;100472.59;5023059;28;20062;-81
2022/09/08 05:07:35;;;;;;;39.90;10.88;;;;;;;15.85;100.00;100472.22;5026295;28;20061;-81
2022/09/08 05:10:01;;;;;;;52.80;11.48;;;;;;;15.90;100.00;100475.34;5027561;28;20078;-80
2022/09/08 05:12:28;;;;;;;48.35;12.20;;;;;;;15.86;100.00;100468.44;5042019;28;20040;-80
2022/09/08 05:14:53;;;;;;;63.42;12.25;;;;;;;15.86;100.00;100469.31;5030872;28;20037;-81
2022/09/08 05:17:19;;;;;;;44.53;11.95;;;;;;;15.87;100.00;100468.28;5015597;28;20026;-81
2022/09/08 05:19:49;;;;;;;62.22;13.88;;;;;;;15.88;100.00;100478.28;5044615;28;20037;-81
2022/09/08 05:22:20;;;;;;;54.42;13.15;;;;;;;15.76;100.00;100463.06;5028483;28;20037;-81
2022/09/08 05:24:50;;;;;;;47.47;13.70;;;;;;;15.84;100.00;100468.63;5024405;28;20091;-80
2022/09/08 05:27:21;;;;;;;55.90;12.65;;;;;;;15.92;100.00;100473.28;5042387;28;20029;-80
2022/09/08 05:29:54;;;;;;;46.15;11.15;;;;;;;15.86;100.00;100472.06;5040917;28;20045;-81
2022/09/08 05:32:24;;;;;;;48.35;13.45;;;;;;;15.79;100.00;100468.25;5028588;28;20037;-81
2022/09/08 05:34:50;;;;;;;58.55;14.57;;;;;;;15.79;100.00;100466.34;5017277;28;20037;-81
2022/09/08 05:37:21;;;;;;;59.97;14.88;;;;;;;15.86;100.00;100463.78;5021875;28;20029;-82
2022/09/08 05:39:54;;;;;;;65.57;14.40;;;;;;;15.78;100.00;100472.03;5026559;28;20037;-81
2022/09/08 05:42:20;;;;;;;51.78;13.10;;;;;;;15.76;100.00;100465.81;5014434;28;20418;-82
2022/09/08 05:44:48;;;;;;;50.28;12.48;;;;;;;15.83;100.00;100469.63;5047672;28;20091;-82
2022/09/08 05:47:19;;;;;;;64.03;15.27;;;;;;;15.74;100.00;100465.94;5013961;28;20041;-81
2022/09/08 05:49:46;;;;;;;62.65;15.48;;;;;;;15.81;100.00;100466.19;5030651;28;20030;-81
2022/09/08 05:52:12;;;;;;;57.63;14.75;;;;;;;15.82;100.00;100462.38;5030289;28;20045;-82
2022/09/08 05:54:38;;;;;;;69.95;16.85;;;;;;;15.74;100.00;100465.94;5030874;28;20121;-81
2022/09/08 05:57:05;;;;;;;50.80;16.50;;;;;;;15.78;100.00;100472.03;5011444;28;20064;-82
2022/09/08 05:59:31;;;;;;;66.50;17.35;;;;;;;15.87;100.00;100467.41;5016889;28;20033;-81
2022/09/08 06:01:56;;;;;;;49.90;15.20;;;;;;;15.85;100.00;100462.03;5030715;28;20026;-81
2022/09/08 06:04:23;;;;;;;84.32;18.27;;;;;;;15.94;100.00;100471.25;5021996;28;20104;-82
2022/09/08 06:06:51;;;;;;;58.35;16.17;;;;;;;15.96;100.00;100466.41;5020366;28;20025;-81
2022/09/08 06:09:16;;;;;;;82.03;18.20;;;;;;;15.94;100.00;100471.25;5018917;28;20096;-81
2022/09/08 06:11:42;;;;;;;66.93;18.88;;;;;;;15.91;100.00;100464.16;5051757;28;20030;-83
2022/09/08 06:14:12;;;;;;;68.53;19.58;;;;;;;15.93;100.00;100469.50;4993763;28;20482;-83
2022/09/08 06:16:38;;;;;;;60.50;18.92;;;;;;;15.98;100.00;100472.63;5025272;28;20123;-83
2022/09/08 06:19:05;;;;;;;71.28;19.48;;;;;;;15.89;100.00;100468.97;5024580;28;20399;-82
2022/09/08 06:21:32;;;;;;;63.05;18.88;;;;;;;15.97;100.00;100477.28;5045563;28;20042;-82
2022/09/08 06:24:04;;;;;;;67.68;21.23;;;;;;;15.85;100.00;100475.84;5028781;28;20029;-81
2022/09/08 06:27:33;;;;;;;70.57;20.80;;;;;;;16.04;100.00;100482.16;5022886;28;20026;-83
2022/09/08 06:30:18;;;;;;;98.88;23.15;;;;;;;15.99;100.00;100475.22;4998705;28;20035;-83
2022/09/08 06:32:52;;;;;;;78.78;22.85;;;;;;;15.98;100.00;100481.75;5032800;28;20037;-81
2022/09/08 06:35:27;;;;;;;74.43;22.23;;;;;;;16.02;100.00;100484.19;5023999;28;20085;-81
2022/09/08 06:38:05;;;;;;;81.95;24.65;;;;;;;16.05;100.00;100486.63;5034447;28;20067;-80
2022/09/08 06:40:37;;;;;;;82.80;24.17;;;;;;;15.96;100.00;100492.13;5019185;28;20054;-79
2022/09/08 06:43:24;;;;;;;81.70;24.13;;;;;;;15.98;100.00;100486.44;5018090;28;20022;-80
2022/09/08 06:45:52;;;;;;;88.97;24.33;;;;;;;16.06;100.00;100488.38;5019157;28;20026;-79
2022/09/08 06:48:30;;;;;;;94.90;26.08;;;;;;;16.01;100.00;100493.53;5019030;28;20045;-82
2022/09/08 06:51:31;;;;;;;96.68;26.58;;;;;;;16.00;100.00;100492.66;5036978;28;20053;-82
2022/09/08 06:54:23;;;;;;;100.47;27.73;;;;;;;16.07;100.00;100501.13;5030148;28;20382;-82
2022/09/08 06:57:07;;;;;;;106.20;25.77;;;;;;;16.13;100.00;100486.66;5039993;28;20021;-83
2022/09/08 07:00:10;;;;;;;79.80;25.05;;;;;;;16.07;100.00;100488.22;5040170;28;20025;-82
2022/09/08 07:02:53;;;;;;;81.40;25.13;;;;;;;16.10;100.00;100487.88;5024649;28;20045;-83
2022/09/08 07:05:26;;;;;;;78.07;26.70;;;;;;;16.21;100.00;100480.31;5036077;28;20506;-83
2022/09/08 07:07:53;;;;;;;95.47;25.45;;;;;;;16.21;100.00;100496.88;5021180;28;20512;-83
2022/09/08 07:10:28;;;;;;;70.70;23.25;;;;;;;16.25;100.00;100496.38;5001700;28;20030;-83
2022/09/08 07:13:07;;;;;;;84.60;24.77;;;;;;;16.26;100.00;100495.34;5017396;28;20026;-83
2022/09/08 07:15:51;;;;;;;91.22;26.35;;;;;;;16.34;100.00;100494.50;5037188;28;20025;-79
2022/09/08 07:18:42;;;;;;;80.35;24.63;;;;;;;16.42;100.00;100497.28;5010303;28;20125;-82
2022/09/08 07:21:48;;;;;;;72.85;23.85;;;;;;;16.29;100.00;100495.00;5025794;28;20094;-80
2022/09/08 07:24:18;;;;;;;70.07;22.38;;;;;;;16.41;100.00;100495.56;5036886;28;20077;-82
2022/09/08 07:26:58;;;;;;;65.82;24.00;;;;;;;16.54;100.00;100487.66;5024401;28;20033;-82
2022/09/08 07:29:41;;;;;;;77.38;24.77;;;;;;;16.65;100.00;100497.50;5038069;28;20040;-82
2022/09/08 07:32:15;;;;;;;66.03;23.08;;;;;;;16.78;100.00;100496.16;5027274;28;20029;-82
2022/09/08 07:34:56;;;;;;;68.93;24.98;;;;;;;16.89;100.00;100501.41;5043368;28;20033;-81
2022/09/08 07:37:27;;;;;;;65.30;23.70;;;;;;;16.86;100.00;100499.81;5023382;28;20030;-81
2022/09/08 07:40:16;;;;;;;68.78;23.60;;;;;;;16.81;100.00;100498.59;5023631;28;20026;-82
2022/09/08 07:42:47;;;;;;;75.88;23.58;;;;;;;16.80;100.00;100497.72;5022583;28;20049;-81
2022/09/08 07:45:16;;;;;;;72.78;23.08;;;;;;;16.66;100.00;100504.78;5022798;28;20034;-81
2022/09/08 07:48:11;;;;;;;77.18;24.20;;;;;;;16.66;100.00;100502.03;5008088;28;20486;-81
2022/09/08 07:50:56;;;;;;;83.90;24.02;;;;;;;16.69;100.00;100504.44;5040700;28;20038;-82
2022/09/08 07:53:43;;;;;;;86.55;23.95;;;;;;;16.71;100.00;100507.03;5025040;28;20057;-81
2022/09/08 07:56:26;;;;;;;64.85;22.38;;;;;;;16.62;100.00;100499.75;5009694;28;20105;-81
2022/09/08 07:59:14;;;;;;;82.45;25.35;;;;;;;16.72;100.00;100509.63;5010264;28;20038;-81
2022/09/08 08:01:43;;;;;;;86.35;25.15;;;;;;;16.87;100.00;100500.69;5051265;28;20049;-81
2022/09/08 08:04:31;;;;;;;68.50;23.63;;;;;;;17.01;100.00;100502.78;5041262;28;20048;-80
2022/09/08 08:07:07;;;;;;;64.95;23.13;;;;;;;16.96;100.00;100510.72;5024134;28;20026;-81
2022/09/08 08:09:40;;;;;;;71.78;23.55;;;;;;;16.90;100.00;100511.41;5009742;28;20061;-81
2022/09/08 08:12:31;;;;;;;85.70;25.30;;;;;;;16.88;100.00;100513.47;5010770;28;20030;-81
2022/09/08 08:15:03;;;;;;;90.57;25.55;;;;;;;17.13;100.00;100507.97;5033248;28;20033;-81
2022/09/08 08:18:11;;;;;;;71.00;24.33;;;;;;;17.97;100.00;100508.53;5027930;28;20036;-81
2022/09/08 08:20:50;;;;;;;70.82;25.15;;;;;;;18.35;100.00;100505.97;5010726;28;20038;-81
2022/09/08 08:23:31;;;;;;;76.97;27.70;;;;;;;18.85;100.00;100518.50;5027335;28;20052;-82
2022/09/08 08:26:14;;;;;;;54.03;21.30;;;;;;;18.54;100.00;100516.59;5031148;28;20038;-81
2022/09/08 08:28:44;;;;;;;66.18;23.67;;;;;;;19.28;100.00;100520.75;5025697;28;20045;-81
2022/09/08 08:31:42;;;;;;;49.45;19.23;;;;;;;19.05;100.00;100509.69;5026544;28;20477;-81
2022/09/08 08:34:24;;;;;;;51.03;19.23;;;;;;;19.67;100.00;100513.28;5025331;28;20022;-82
2022/09/08 08:37:03;;;;;;;49.50;20.30;;;;;;;20.08;100.00;100516.50;5025388;28;20030;-81
2022/09/08 08:39:31;;;;;;;46.67;19.23;;;;;;;20.27;100.00;100512.25;5041749;28;20033;-81
2022/09/08 08:42:33;;;;;;;35.70;16.20;;;;;;;20.58;100.00;100511.16;5061732;28;20041;-82
2022/09/08 08:45:06;;;;;;;35.03;14.13;;;;;;;19.32;100.00;100526.81;5043075;28;20484;-81
2022/09/08 08:47:47;;;;;;;37.40;17.15;;;;;;;18.99;100.00;100524.28;5042317;28;20052;-81
2022/09/08 08:50:30;;;;;;;54.25;16.63;;;;;;;19.12;100.00;100520.91;5026942;28;20030;-80
2022/09/08 08:53:40;;;;;;;35.00;13.60;;;;;;;18.97;100.00;100518.94;5020052;28;20041;-83
2022/09/08 08:56:48;;;;;;;28.85;11.68;;;;;;;17.90;100.00;100529.69;5021718;28;20030;-81
2022/09/08 08:59:22;;;;;;;23.33;12.50;;;;;;;17.99;100.00;100528.63;5034587;28;20046;-80
2022/09/08 09:02:13;;;;;;;27.15;11.75;;;;;;;19.31;100.00;100530.63;5028560;28;20021;-80
2022/09/08 09:04:52;;;;;;;36.45;11.65;;;;;;;19.28;100.00;100529.97;5057186;28;20069;-81
2022/09/08 09:07:51;;;;;;;28.05;13.40;;;;;;;18.72;100.00;100530.16;5024598;28;20044;-81
2022/09/08 09:10:54;;;;;;;35.70;13.77;;;;;;;18.13;100.00;100530.63;5038845;28;20072;-81
2022/09/08 09:13:25;;;;;;;29.60;12.40;;;;;;;18.01;100.00;100529.31;5035559;28;20033;-79
2022/09/08 09:16:06;;;;;;;23.33;11.48;;;;;;;18.00;100.00;100514.59;5040599;28;20081;-80
2022/09/08 09:19:08;;;;;;;22.30;11.30;;;;;;;17.75;100.00;100527.59;5040570;28;20041;-80
2022/09/08 09:21:52;;;;;;;20.45;10.52;;;;;;;17.82;100.00;100522.22;5041378;28;20064;-80
2022/09/08 09:24:45;;;;;;;35.65;11.70;;;;;;;17.80;100.00;100519.63;5037906;28;20492;-80
2022/09/08 09:27:29;;;;;;;28.33;10.27;;;;;;;17.89;100.00;100523.28;5013322;28;20029;-80
2022/09/08 09:30:12;;;;;;;20.15;9.18;;;;;;;17.85;100.00;100532.09;5017971;28;20033;-81
2022/09/08 09:33:27;;;;;;;22.35;8.43;;;;;;;17.57;100.00;100535.25;5009972;28;20037;-81
2022/09/08 09:36:22;;;;;;;25.67;8.20;;;;;;;17.58;100.00;100526.78;5012110;28;20045;-81
2022/09/08 09:38:56;;;;;;;18.60;8.65;;;;;;;17.91;100.00;100532.28;5035033;28;20443;-81
2022/09/08 09:41:34;;;;;;;28.92;9.52;;;;;;;17.93;100.00;100529.31;5030496;28;20049;-80
2022/09/08 09:44:18;;;;;;;20.05;8.68;;;;;;;17.81;100.00;100529.66;5022806;28;20033;-80
2022/09/08 09:46:58;;;;;;;22.30;6.82;;;;;;;17.57;100.00;100536.13;5022734;28;20520;-82
2022/09/08 09:50:00;;;;;;;25.52;6.55;;;;;;;17.70;100.00;100529.19;5019942;28;20029;-80
2022/09/08 09:52:44;;;;;;;17.77;5.57;;;;;;;17.48;100.00;100528.00;5027862;28;20053;-81
2022/09/08 09:55:39;;;;;;;26.80;6.47;;;;;;;17.36;100.00;100531.13;5027803;28;20048;-81
2022/09/08 09:58:37;;;;;;;14.90;5.13;;;;;;;17.43;100.00;100528.50;5038786;28;20113;-81
2022/09/08 10:01:21;;;;;;;19.20;5.65;;;;;;;17.22;100.00;100526.31;5040425;28;20025;-81
2022/09/08 10:04:05;;;;;;;16.25;5.25;;;;;;;17.33;100.00;100520.41;5039733;28;20022;-81
2022/09/08 10:07:08;;;;;;;16.73;5.03;;;;;;;17.24;100.00;100529.75;5038677;28;20476;-81
2022/09/08 10:09:53;;;;;;;11.70;4.18;;;;;;;17.49;100.00;100518.66;5021681;28;20319;-80
2022/09/08 10:12:54;;;;;;;20.25;4.57;;;;;;;18.65;100.00;100531.09;5019758;28;20474;-81
2022/09/08 10:15:33;;;;;;;13.00;3.15;;;;;;;19.39;100.00;100528.66;5021547;28;20109;-81
2022/09/08 10:18:19;;;;;;;18.17;3.38;;;;;;;19.39;100.00;100533.34;5020098;28;20413;-81
2022/09/08 10:21:03;;;;;;;14.70;3.10;;;;;;;20.16;100.00;100538.63;5021507;28;20022;-81
2022/09/08 10:23:52;;;;;;;11.38;3.10;;;;;;;20.37;100.00;100528.66;5036925;28;20189;-81
2022/09/08 10:26:29;;;;;;;9.00;2.40;;;;;;;20.67;100.00;100523.91;5039725;28;20036;-81
2022/09/08 10:29:31;;;;;;;12.05;2.60;;;;;;;20.79;100.00;100521.50;5018951;28;20032;-80
2022/09/08 10:32:24;;;;;;;17.52;2.75;;;;;;;21.11;100.00;100527.59;5040362;28;20093;-80
2022/09/08 10:35:09;;;;;;;18.02;2.70;;;;;;;21.45;100.00;100534.34;5045689;28;20393;-79
2022/09/08 10:37:51;;;;;;;17.00;2.80;;;;;;;21.35;100.00;100514.31;5018893;28;20049;-79
2022/09/08 10:40:34;;;;;;;15.25;2.13;;;;;;;20.99;100.00;100518.03;5018661;28;20029;-81
2022/09/08 10:43:24;;;;;;;13.05;2.78;;;;;;;21.16;100.00;100510.28;5020875;28;20041;-78
2022/09/08 10:46:19;;;;;;;15.73;2.55;;;;;;;21.21;100.00;100510.56;5038338;28;20562;-81
2022/09/08 10:49:17;;;;;;;16.90;2.83;;;;;;;21.11;100.00;100511.75;5019680;28;20030;-81
2022/09/08 10:52:21;;;;;;;11.98;2.33;;;;;;;20.65;100.00;100494.56;5019649;28;20033;-80
2022/09/08 10:55:27;;;;;;;11.27;3.03;;;;;;;21.13;100.00;100511.53;5018764;28;20087;-79
2022/09/08 10:58:30;;;;;;;13.07;1.88;;;;;;;21.41;100.00;100510.72;5040745;28;20032;-79
2022/09/08 11:01:07;;;;;;;13.75;2.25;;;;;;;21.13;100.00;100502.34;5039536;28;20485;-79
2022/09/08 11:04:10;;;;;;;9.52;1.80;;;;;;;21.32;100.00;100511.91;5033824;28;20033;-80
2022/09/08 11:07:08;;;;;;;9.55;1.75;;;;;;;21.52;100.00;100510.22;5002349;28;20057;-79
2022/09/08 11:10:21;;;;;;;11.95;1.60;;;;;;;21.57;100.00;100507.66;5020596;28;20026;-79
2022/09/08 11:13:27;;;;;;;13.50;1.90;;;;;;;21.72;100.00;100504.78;5019204;28;20044;-79
2022/09/08 11:16:19;;;;;;;15.45;2.05;;;;;;;21.80;100.00;100493.47;5023584;28;20033;-82
2022/09/08 11:19:02;;;;;;;12.18;2.08;;;;;;;21.78;100.00;100503.13;5025625;28;20444;-80
2022/09/08 11:21:47;;;;;;;13.95;2.10;;;;;;;21.22;100.00;100498.38;5039083;28;20040;-81
2022/09/08 11:24:21;;;;;;;13.70;1.63;;;;;;;21.01;100.00;100491.72;5020141;28;20100;-80
2022/09/08 11:27:05;;;;;;;9.98;2.35;;;;;;;20.84;100.00;100495.84;5018138;28;20071;-80
2022/09/08 11:29:38;;;;;;;20.15;2.78;;;;;;;20.77;100.00;100492.13;5017300;28;20394;-78
2022/09/08 11:32:31;;;;;;;12.52;2.05;;;;;;;21.03;100.00;100488.75;5032872;28;20569;-79
2022/09/08 11:35:07;;;;;;;4.88;1.70;;;;;;;21.23;100.00;100480.56;5020872;28;20060;-80
2022/09/08 11:38:00;;;;;;;14.60;2.25;;;;;;;21.27;100.00;100485.53;5031646;28;20120;-79
2022/09/08 11:41:08;;;;;;;10.75;1.77;;;;;;;21.67;100.00;100487.81;5029721;28;20103;-78
2022/09/08 11:43:50;;;;;;;14.80;1.88;;;;;;;21.88;100.00;100488.81;5040834;28;20026;-79
2022/09/08 11:46:33;;;;;;;9.80;1.70;;;;;;;21.96;100.00;100478.34;5030760;28;20029;-78
2022/09/08 11:49:33;;;;;;;8.52;1.33;;;;;;;21.86;100.00;100475.09;5022545;28;20041;-78
2022/09/08 11:52:04;;;;;;;10.30;1.27;;;;;;;22.05;100.00;100470.66;5038909;28;20052;-78
2022/09/08 11:54:33;;;;;;;9.65;1.40;;;;;;;22.03;100.00;100468.09;5022168;28;20029;-79